createdAt,value
2022-10-29T00:00:53.684Z,67.41
2022-10-29T00:03:21.104Z,67.34
2022-10-29T00:05:54.982Z,67.29
2022-10-29T00:08:21.699Z,67.47
2022-10-29T00:10:48.490Z,67.38
2022-10-29T00:13:15.325Z,67.62
2022-10-29T00:15:42.430Z,67.78
2022-10-29T00:18:09.087Z,67.91
2022-10-29T00:20:35.792Z,68.06
2022-10-29T00:23:02.876Z,68.01
2022-10-29T00:25:29.589Z,68.18
2022-10-29T00:27:56.716Z,68.23
2022-10-29T00:30:23.758Z,68.18
2022-10-29T00:32:50.449Z,67.93
2022-10-29T00:35:17.244Z,67.94
2022-10-29T00:37:44.295Z,68.10
2022-10-29T00:40:11.298Z,68.14
2022-10-29T00:42:38.638Z,68.33
2022-10-29T00:45:05.717Z,68.49
2022-10-29T00:47:36.091Z,68.59
2022-10-29T00:50:04.837Z,68.66
2022-10-29T00:52:32.923Z,68.62
2022-10-29T00:55:02.612Z,68.65
2022-10-29T00:57:41.194Z,68.62
2022-10-29T01:00:08.269Z,68.48
2022-10-29T01:02:35.778Z,68.66
2022-10-29T01:05:03.940Z,68.62
2022-10-29T01:07:30.835Z,68.57
2022-10-29T01:09:57.980Z,68.67
2022-10-29T01:12:43.765Z,68.66
2022-10-29T01:15:19.754Z,68.66
2022-10-29T01:18:05.482Z,68.99
2022-10-29T01:20:35.232Z,69.09
2022-10-29T01:23:20.376Z,69.52
2022-10-29T01:25:50.289Z,69.63
2022-10-29T01:28:35.629Z,69.56
2022-10-29T01:31:05.444Z,69.48
2022-10-29T01:34:01.714Z,69.36
2022-10-29T01:36:28.406Z,69.28
2022-10-29T01:39:12.822Z,69.40
2022-10-29T01:41:39.501Z,69.60
2022-10-29T01:44:06.135Z,69.43
2022-10-29T01:46:40.813Z,69.67
2022-10-29T01:49:11.086Z,69.69
2022-10-29T01:51:38.254Z,69.88
2022-10-29T01:54:10.158Z,70.11
2022-10-29T01:56:37.347Z,70.15
2022-10-29T01:59:06.876Z,70.09
2022-10-29T02:01:38.186Z,70.35
2022-10-29T02:04:14.151Z,70.50
2022-10-29T02:06:40.957Z,70.35
2022-10-29T02:09:21.977Z,70.31
2022-10-29T02:11:59.243Z,70.58
2022-10-29T02:14:30.052Z,70.55
2022-10-29T02:16:56.970Z,70.77
2022-10-29T02:19:23.930Z,70.81
2022-10-29T02:21:50.849Z,70.84
2022-10-29T02:24:17.690Z,70.90
2022-10-29T02:26:44.489Z,70.87
2022-10-29T02:29:11.188Z,70.90
2022-10-29T02:31:37.962Z,70.92
2022-10-29T02:34:04.728Z,70.68
2022-10-29T02:36:31.621Z,70.70
2022-10-29T02:38:58.400Z,70.72
2022-10-29T02:41:25.205Z,70.63
2022-10-29T02:43:51.886Z,70.37
2022-10-29T02:46:20.423Z,70.40
2022-10-29T02:48:47.530Z,70.65
2022-10-29T02:51:14.778Z,70.40
2022-10-29T02:53:41.794Z,70.09
2022-10-29T02:56:08.930Z,70.11
2022-10-29T02:58:35.720Z,70.30
2022-10-29T03:01:02.964Z,70.34
2022-10-29T03:03:29.711Z,70.60
2022-10-29T03:05:56.648Z,70.71
2022-10-29T03:08:23.693Z,70.83
2022-10-29T03:10:50.489Z,70.62
2022-10-29T03:13:18.049Z,70.58
2022-10-29T03:15:48.456Z,70.70
2022-10-29T03:18:15.349Z,70.71
2022-10-29T03:20:42.832Z,70.79
2022-10-29T03:23:09.575Z,71.01
2022-10-29T03:25:36.382Z,71.00
2022-10-29T03:28:04.990Z,71.15
2022-10-29T03:30:31.925Z,71.12
2022-10-29T03:32:58.967Z,71.34
2022-10-29T03:35:26.076Z,71.14
2022-10-29T03:37:53.087Z,71.40
2022-10-29T03:40:19.827Z,71.29
2022-10-29T03:42:46.493Z,71.45
2022-10-29T03:45:13.316Z,71.79
2022-10-29T03:47:40.031Z,71.79
2022-10-29T03:50:07.406Z,71.82
2022-10-29T03:52:34.169Z,71.83
2022-10-29T03:55:00.959Z,71.73
2022-10-29T03:57:27.965Z,71.94
2022-10-29T03:59:54.690Z,71.73
2022-10-29T04:02:21.682Z,71.96
2022-10-29T04:04:48.643Z,72.07
2022-10-29T04:07:15.611Z,71.93
2022-10-29T04:09:42.308Z,72.09
2022-10-29T04:12:09.294Z,71.85
2022-10-29T04:14:38.094Z,71.71
2022-10-29T04:17:08.720Z,71.91
2022-10-29T04:19:35.422Z,72.28
2022-10-29T04:27:08.090Z,72.36
2022-10-29T04:30:24.023Z,72.62
2022-10-29T04:32:50.801Z,72.55
2022-10-29T04:35:17.621Z,72.84
2022-10-29T04:37:44.490Z,72.94
2022-10-29T04:40:11.441Z,72.94
2022-10-29T04:42:38.725Z,73.17
2022-10-29T04:45:06.247Z,73.28
2022-10-29T04:47:33.467Z,73.13
2022-10-29T04:50:00.192Z,73.29
2022-10-29T04:52:27.659Z,73.43
2022-10-29T04:54:54.316Z,73.11
2022-10-29T04:57:21.057Z,73.01
2022-10-29T04:59:48.006Z,73.35
2022-10-29T05:02:14.745Z,73.66
2022-10-29T05:04:41.583Z,73.65
2022-10-29T05:07:08.679Z,73.71
2022-10-29T05:09:35.537Z,73.51
2022-10-29T05:12:02.271Z,73.74
2022-10-29T05:14:29.278Z,73.84
2022-10-29T05:16:56.000Z,73.74
2022-10-29T05:19:22.980Z,73.99
2022-10-29T05:21:49.920Z,74.04
2022-10-29T05:24:16.800Z,73.93
2022-10-29T05:26:43.956Z,73.73
2022-10-29T05:29:10.769Z,74.03
2022-10-29T05:31:37.458Z,73.98
2022-10-29T05:34:04.354Z,74.02
2022-10-29T05:36:31.306Z,73.83
2022-10-29T05:38:58.250Z,73.89
2022-10-29T05:41:24.936Z,73.83
2022-10-29T05:43:53.004Z,73.91
2022-10-29T05:46:19.804Z,73.90
2022-10-29T05:48:46.990Z,73.96
2022-10-29T05:51:13.846Z,73.96
2022-10-29T05:53:40.572Z,74.05
2022-10-29T05:56:07.776Z,73.98
2022-10-29T05:58:34.627Z,73.92
2022-10-29T06:01:05.648Z,74.23
2022-10-29T06:03:32.436Z,74.40
2022-10-29T06:05:59.399Z,74.56
2022-10-29T06:08:26.182Z,75.00
2022-10-29T06:10:52.983Z,74.91
2022-10-29T06:13:20.585Z,74.83
2022-10-29T06:15:48.323Z,74.66
2022-10-29T06:18:15.377Z,74.39
2022-10-29T06:20:43.788Z,74.45
2022-10-29T06:23:11.242Z,74.36
2022-10-29T06:25:38.137Z,74.38
2022-10-29T06:28:06.034Z,74.81
2022-10-29T06:30:33.401Z,74.71
2022-10-29T06:33:00.375Z,74.44
2022-10-29T06:35:27.270Z,74.42
2022-10-29T06:37:55.762Z,74.42
2022-10-29T06:40:23.127Z,74.44
2022-10-29T06:42:49.884Z,74.28
2022-10-29T06:45:16.837Z,74.34
2022-10-29T06:47:44.740Z,74.45
2022-10-29T06:50:13.177Z,74.31
2022-10-29T06:52:40.024Z,74.44
2022-10-29T06:55:07.663Z,74.37
2022-10-29T06:57:34.451Z,74.35
2022-10-29T07:00:05.663Z,74.09
2022-10-29T07:02:35.210Z,74.00
2022-10-29T07:05:02.076Z,74.04
2022-10-29T07:07:29.822Z,74.02
2022-10-29T07:09:58.200Z,73.52
2022-10-29T07:12:25.226Z,73.11
2022-10-29T07:14:52.149Z,72.96
2022-10-29T07:17:18.873Z,72.79
2022-10-29T07:19:45.833Z,72.70
2022-10-29T07:22:12.589Z,72.57
2022-10-29T07:24:39.428Z,72.31
2022-10-29T07:27:07.475Z,71.99
2022-10-29T07:29:35.345Z,71.88
2022-10-29T07:32:02.294Z,71.69
2022-10-29T07:34:29.016Z,71.46
2022-10-29T07:36:55.714Z,71.46
2022-10-29T07:39:22.810Z,71.12
2022-10-29T07:41:49.661Z,71.22
2022-10-29T07:44:16.373Z,71.11
2022-10-29T07:46:43.088Z,71.08
2022-10-29T07:49:09.828Z,71.10
2022-10-29T07:51:36.569Z,70.86
2022-10-29T07:54:03.452Z,70.94
2022-10-29T07:56:30.251Z,70.26
2022-10-29T07:58:56.969Z,70.61
2022-10-29T08:01:23.780Z,70.45
2022-10-29T08:03:51.300Z,70.25
2022-10-29T08:06:18.132Z,70.12
2022-10-29T08:08:44.951Z,70.15
2022-10-29T08:11:11.644Z,69.92
2022-10-29T08:13:38.616Z,69.94
2022-10-29T08:16:05.557Z,69.81
2022-10-29T08:18:32.469Z,69.62
2022-10-29T08:20:59.341Z,69.44
2022-10-29T08:23:26.130Z,69.49
2022-10-29T08:25:52.784Z,69.15
2022-10-29T08:28:21.817Z,68.89
2022-10-29T08:30:51.073Z,68.66
2022-10-29T08:33:18.213Z,68.44
2022-10-29T08:35:44.934Z,68.24
2022-10-29T08:38:11.799Z,68.05
2022-10-29T08:41:06.700Z,67.59
2022-10-29T08:43:36.585Z,66.71
2022-10-29T08:46:03.842Z,66.40
2022-10-29T08:48:33.748Z,66.23
2022-10-29T08:51:03.359Z,66.08
2022-10-29T08:53:39.543Z,65.82
2022-10-29T08:56:10.956Z,65.27
2022-10-29T08:58:44.039Z,64.90
2022-10-29T09:01:12.105Z,64.71
2022-10-29T09:03:39.055Z,64.80
2022-10-29T09:06:24.249Z,64.29
2022-10-29T09:09:10.892Z,64.31
2022-10-29T09:11:37.667Z,63.85
2022-10-29T09:14:07.505Z,63.62
2022-10-29T09:16:43.326Z,63.51
2022-10-29T09:19:22.739Z,63.84
2022-10-29T09:22:00.123Z,63.18
2022-10-29T09:24:42.306Z,63.02
2022-10-29T09:27:16.173Z,62.79
2022-10-29T09:29:55.557Z,62.75
2022-10-29T09:32:31.459Z,61.93
2022-10-29T09:35:02.093Z,61.93
2022-10-29T09:37:35.352Z,61.14
2022-10-29T09:40:04.894Z,60.82
2022-10-29T09:42:35.575Z,60.64
2022-10-29T09:45:04.560Z,60.19
2022-10-29T09:47:37.641Z,60.06
2022-10-29T09:50:14.273Z,60.08
2022-10-29T09:52:42.513Z,59.77
2022-10-29T09:55:15.497Z,59.42
2022-10-29T09:57:42.330Z,59.52
2022-10-29T10:00:20.457Z,59.36
2022-10-29T10:02:55.143Z,58.93
2022-10-29T10:05:27.290Z,59.00
2022-10-29T10:08:13.713Z,58.86
2022-10-29T10:10:52.054Z,58.46
2022-10-29T10:13:21.792Z,57.98
2022-10-29T10:15:55.171Z,57.71
2022-10-29T10:18:23.738Z,58.23
2022-10-29T10:21:10.762Z,58.33
2022-10-29T10:23:45.271Z,58.26
2022-10-29T10:26:31.074Z,57.97
2022-10-29T10:29:17.900Z,57.62
2022-10-29T10:31:49.062Z,57.57
2022-10-29T10:34:17.591Z,57.25
2022-10-29T10:36:52.030Z,56.77
2022-10-29T10:39:38.008Z,57.40
2022-10-29T10:42:25.856Z,56.59
2022-10-29T10:45:03.751Z,56.93
2022-10-29T10:47:35.601Z,56.31
2022-10-29T10:50:11.647Z,56.42
2022-10-29T10:52:39.054Z,56.20
2022-10-29T10:55:16.484Z,55.79
2022-10-29T10:57:50.115Z,55.71
2022-10-29T11:00:21.772Z,55.61
2022-10-29T11:03:11.913Z,55.43
2022-10-29T11:05:53.433Z,55.51
2022-10-29T11:08:43.128Z,54.82
2022-10-29T11:11:20.414Z,55.09
2022-10-29T11:13:49.101Z,54.81
2022-10-29T11:16:15.813Z,55.21
2022-10-29T11:18:52.456Z,55.27
2022-10-29T11:21:28.899Z,55.37
2022-10-29T11:23:58.780Z,55.04
2022-10-29T11:26:29.618Z,54.75
2022-10-29T11:28:59.890Z,54.50
2022-10-29T11:31:36.439Z,54.72
2022-10-29T11:34:08.296Z,54.43
2022-10-29T11:36:39.699Z,54.08
2022-10-29T11:39:13.840Z,53.42
2022-10-29T11:41:47.116Z,53.48
2022-10-29T11:44:15.142Z,53.48
2022-10-29T11:46:57.310Z,53.22
2022-10-29T11:49:36.245Z,52.81
2022-10-29T11:52:11.412Z,52.97
2022-10-29T11:54:38.567Z,52.63
2022-10-29T11:57:08.633Z,52.42
2022-10-29T11:59:35.341Z,51.96
2022-10-29T12:02:20.961Z,51.67
2022-10-29T12:04:53.344Z,51.76
2022-10-29T12:07:22.925Z,51.66
2022-10-29T12:10:00.439Z,51.62
2022-10-29T12:12:46.318Z,51.34
2022-10-29T12:15:15.768Z,50.22
2022-10-29T12:17:50.732Z,50.02
2022-10-29T12:20:17.445Z,50.16
2022-10-29T12:23:02.560Z,49.85
2022-10-29T12:25:32.825Z,49.51
2022-10-29T12:27:59.578Z,49.41
2022-10-29T12:30:27.454Z,48.96
2022-10-29T12:33:00.579Z,49.19
2022-10-29T12:35:33.838Z,48.71
2022-10-29T12:38:19.472Z,48.32
2022-10-29T12:40:48.590Z,48.03
2022-10-29T12:43:41.881Z,47.76
2022-10-29T12:46:21.535Z,47.43
2022-10-29T12:48:54.597Z,47.48
2022-10-29T12:51:51.147Z,47.65
2022-10-29T12:54:27.042Z,47.47
2022-10-29T12:56:56.673Z,47.21
2022-10-29T12:59:23.457Z,47.30
2022-10-29T13:02:10.416Z,47.42
2022-10-29T13:04:37.567Z,47.03
2022-10-29T13:07:06.142Z,47.57
2022-10-29T13:09:37.182Z,47.75
2022-10-29T13:12:05.148Z,47.48
2022-10-29T13:14:31.991Z,46.84
2022-10-29T13:16:59.340Z,46.69
2022-10-29T13:19:44.549Z,46.44
2022-10-29T13:22:17.302Z,46.73
2022-10-29T13:24:44.331Z,47.13
2022-10-29T13:27:17.021Z,46.94
2022-10-29T13:29:48.376Z,46.41
2022-10-29T13:32:30.434Z,46.17
2022-10-29T13:34:58.978Z,46.09
2022-10-29T13:37:39.125Z,46.54
2022-10-29T13:40:24.933Z,46.28
2022-10-29T13:43:01.466Z,46.40
2022-10-29T13:45:30.248Z,46.59
2022-10-29T13:48:02.508Z,46.69
2022-10-29T13:50:29.548Z,46.55
2022-10-29T13:52:58.718Z,46.30
2022-10-29T13:55:27.695Z,46.20
2022-10-29T13:57:54.642Z,46.11
2022-10-29T14:00:22.100Z,46.29
2022-10-29T14:02:54.918Z,46.30
2022-10-29T14:05:23.975Z,46.30
2022-10-29T14:07:56.212Z,46.27
2022-10-29T14:10:24.826Z,46.48
2022-10-29T14:12:55.241Z,46.58
2022-10-29T14:15:22.452Z,46.61
2022-10-29T14:17:49.200Z,46.51
2022-10-29T14:20:20.101Z,46.27
2022-10-29T14:22:46.955Z,46.41
2022-10-29T14:25:49.326Z,46.28
2022-10-29T14:28:31.661Z,46.16
2022-10-29T14:31:12.233Z,46.40
2022-10-29T14:33:40.498Z,46.29
2022-10-29T14:36:07.322Z,46.10
2022-10-29T14:38:46.394Z,46.49
2022-10-29T14:41:14.922Z,46.87
2022-10-29T14:43:42.242Z,46.93
2022-10-29T14:46:10.850Z,47.08
2022-10-29T14:48:38.971Z,47.55
2022-10-29T14:51:05.734Z,48.26
2022-10-29T14:53:38.769Z,47.80
2022-10-29T14:56:09.835Z,47.68
2022-10-29T14:58:38.111Z,48.02
2022-10-29T15:01:09.398Z,47.33
2022-10-29T15:03:36.297Z,47.41
2022-10-29T15:06:12.540Z,47.27
2022-10-29T15:08:40.652Z,47.44
2022-10-29T15:11:27.506Z,47.56
2022-10-29T15:13:54.352Z,47.53
2022-10-29T15:16:21.379Z,47.34
2022-10-29T15:18:49.346Z,47.42
2022-10-29T15:21:32.779Z,47.38
2022-10-29T15:24:04.242Z,47.50
2022-10-29T15:26:31.281Z,47.74
2022-10-29T15:28:58.118Z,47.58
2022-10-29T15:31:34.032Z,47.62
2022-10-29T15:34:08.470Z,47.70
2022-10-29T15:36:48.678Z,47.27
2022-10-29T15:39:19.057Z,47.03
2022-10-29T15:41:50.287Z,47.14
2022-10-29T15:44:37.382Z,46.95
2022-10-29T15:47:40.030Z,47.08
2022-10-29T15:50:09.625Z,47.33
2022-10-29T15:52:41.300Z,47.28
2022-10-29T15:55:14.696Z,46.79
2022-10-29T15:57:42.376Z,46.51
2022-10-29T16:00:11.515Z,46.40
2022-10-29T16:02:38.324Z,46.21
2022-10-29T16:05:05.433Z,46.50
2022-10-29T16:07:32.774Z,46.60
2022-10-29T16:09:59.885Z,46.26
2022-10-29T16:12:26.640Z,45.74
2022-10-29T16:14:53.634Z,46.01
2022-10-29T16:17:21.108Z,46.07
2022-10-29T16:19:48.273Z,46.18
2022-10-29T16:22:26.800Z,46.57
2022-10-29T16:24:53.968Z,46.51
2022-10-29T16:27:21.029Z,46.06
2022-10-29T16:29:49.879Z,46.28
2022-10-29T16:32:17.561Z,46.18
2022-10-29T16:34:44.299Z,46.76
2022-10-29T16:37:12.507Z,46.95
2022-10-29T16:39:39.765Z,46.91
2022-10-29T16:42:06.907Z,47.49
2022-10-29T16:44:33.657Z,47.97
2022-10-29T16:47:00.693Z,48.14
2022-10-29T16:49:27.399Z,48.34
2022-10-29T16:51:54.251Z,48.52
2022-10-29T16:54:21.030Z,48.41
2022-10-29T16:56:48.050Z,48.60
2022-10-29T16:59:14.751Z,49.20
2022-10-29T17:01:42.926Z,49.24
2022-10-29T17:04:09.882Z,49.66
2022-10-29T17:06:36.666Z,49.71
2022-10-29T17:09:05.251Z,49.62
2022-10-29T17:11:32.238Z,50.30
2022-10-29T17:13:59.214Z,51.05
2022-10-29T17:16:26.130Z,51.12
2022-10-29T17:18:52.978Z,51.15
2022-10-29T17:21:19.685Z,51.88
2022-10-29T17:23:46.517Z,51.88
2022-10-29T17:26:13.629Z,52.10
2022-10-29T17:28:40.525Z,52.26
2022-10-29T17:31:07.997Z,52.71
2022-10-29T17:33:34.870Z,53.00
2022-10-29T17:36:02.711Z,53.19
2022-10-29T17:38:29.741Z,53.28
2022-10-29T17:40:56.674Z,54.04
2022-10-29T17:43:23.609Z,53.74
2022-10-29T17:45:50.785Z,53.71
2022-10-29T17:48:20.881Z,54.49
2022-10-29T17:50:56.240Z,54.62
2022-10-29T17:53:23.799Z,54.59
2022-10-29T17:55:50.701Z,55.10
2022-10-29T17:58:18.230Z,55.32
2022-10-29T18:00:45.804Z,55.26
2022-10-29T18:03:12.596Z,55.10
2022-10-29T18:05:39.380Z,55.14
2022-10-29T18:08:06.405Z,55.73
2022-10-29T18:10:33.499Z,55.88
2022-10-29T18:13:00.429Z,56.05
2022-10-29T18:15:27.314Z,55.89
2022-10-29T18:17:54.179Z,55.64
2022-10-29T18:20:20.998Z,56.04
2022-10-29T18:22:50.659Z,55.95
2022-10-29T18:25:18.872Z,56.12
2022-10-29T18:27:45.606Z,56.04
2022-10-29T18:30:12.766Z,56.06
2022-10-29T18:32:39.566Z,55.70
2022-10-29T18:35:06.687Z,56.34
2022-10-29T18:37:33.812Z,56.35
2022-10-29T18:40:00.673Z,56.45
2022-10-29T18:42:29.939Z,56.41
2022-10-29T18:44:57.137Z,56.58
2022-10-29T18:47:23.838Z,56.79
2022-10-29T18:49:50.601Z,57.09
2022-10-29T18:52:17.417Z,56.96
2022-10-29T18:54:44.180Z,57.46
2022-10-29T18:57:14.126Z,57.58
2022-10-29T18:59:46.144Z,57.81
2022-10-29T19:02:12.966Z,57.78
2022-10-29T19:04:39.902Z,57.89
2022-10-29T19:07:06.637Z,58.44
2022-10-29T19:09:33.992Z,58.51
2022-10-29T19:12:00.663Z,58.80
2022-10-29T19:14:27.628Z,59.03
2022-10-29T19:16:54.298Z,59.01
2022-10-29T19:19:23.816Z,58.97
2022-10-29T19:21:51.056Z,59.35
2022-10-29T19:24:17.936Z,59.44
2022-10-29T19:26:44.630Z,59.71
2022-10-29T19:29:11.991Z,59.70
2022-10-29T19:31:39.697Z,60.11
2022-10-29T19:34:07.752Z,60.20
2022-10-29T19:36:35.486Z,60.15
2022-10-29T19:39:03.129Z,60.25
2022-10-29T19:41:30.808Z,60.35
2022-10-29T19:44:03.907Z,60.67
2022-10-29T19:46:31.301Z,60.85
2022-10-29T19:48:58.480Z,61.07
2022-10-29T19:51:25.720Z,61.28
2022-10-29T19:53:52.643Z,61.27
2022-10-29T19:56:19.934Z,61.25
2022-10-29T19:58:46.996Z,61.33
2022-10-29T20:01:19.004Z,61.58
2022-10-29T20:03:46.541Z,61.63
2022-10-29T20:06:14.058Z,61.73
2022-10-29T20:08:40.798Z,61.85
2022-10-29T20:11:07.883Z,62.06
2022-10-29T20:13:35.162Z,61.96
2022-10-29T20:16:07.903Z,61.74
2022-10-29T20:18:35.667Z,62.15
2022-10-29T20:21:02.562Z,62.38
2022-10-29T20:23:29.554Z,62.66
2022-10-29T20:25:56.505Z,62.72
2022-10-29T20:28:23.883Z,62.69
2022-10-29T20:31:09.324Z,62.95
2022-10-29T20:33:36.052Z,63.06
2022-10-29T20:36:02.862Z,63.01
2022-10-29T20:38:29.701Z,63.04
2022-10-29T20:40:56.399Z,63.25
2022-10-29T20:43:23.421Z,63.45
2022-10-29T20:45:51.555Z,62.94
2022-10-29T20:48:18.245Z,63.09
2022-10-29T20:50:50.779Z,63.34
2022-10-29T20:53:17.605Z,63.49
2022-10-29T20:55:44.385Z,63.78
2022-10-29T20:58:11.559Z,63.61
2022-10-29T21:00:38.530Z,63.48
2022-10-29T21:03:05.377Z,63.65
2022-10-29T21:05:32.337Z,63.68
2022-10-29T21:07:59.567Z,63.45
2022-10-29T21:10:26.878Z,63.59
2022-10-29T21:12:54.183Z,63.62
2022-10-29T21:15:21.059Z,63.87
2022-10-29T21:17:47.891Z,64.28
2022-10-29T21:20:14.718Z,64.22
2022-10-29T21:22:41.579Z,64.47
2022-10-29T21:25:08.489Z,64.47
2022-10-29T21:27:35.434Z,64.70
2022-10-29T21:30:02.518Z,64.67
2022-10-29T21:32:29.964Z,64.76
2022-10-29T21:34:56.882Z,64.83
2022-10-29T21:37:23.602Z,65.23
2022-10-29T21:39:50.310Z,65.15
2022-10-29T21:42:17.324Z,65.27
2022-10-29T21:44:44.009Z,65.42
2022-10-29T21:47:11.059Z,65.57
2022-10-29T21:49:37.790Z,65.52
2022-10-29T21:52:04.600Z,65.62
2022-10-29T21:54:31.481Z,65.49
2022-10-29T21:56:58.439Z,65.65
2022-10-29T21:59:25.268Z,65.80
2022-10-29T22:01:52.090Z,65.97
2022-10-29T22:04:19.056Z,66.16
2022-10-29T22:06:45.938Z,66.48
2022-10-29T22:09:12.683Z,66.65
2022-10-29T22:11:39.557Z,66.85
2022-10-29T22:14:06.205Z,66.76
2022-10-29T22:16:33.256Z,66.60
2022-10-29T22:18:59.966Z,66.69
2022-10-29T22:21:27.153Z,66.83
2022-10-29T22:23:57.342Z,66.99
2022-10-29T22:26:28.067Z,67.25
2022-10-29T22:28:55.011Z,67.31
2022-10-29T22:31:22.916Z,67.23
2022-10-29T22:33:49.657Z,67.46
2022-10-29T22:36:17.601Z,67.53
2022-10-29T22:38:44.865Z,67.65
2022-10-29T22:41:12.839Z,67.78
2022-10-29T22:43:40.059Z,67.95
2022-10-29T22:46:07.608Z,67.99
2022-10-29T22:48:35.002Z,67.91
2022-10-29T22:51:12.251Z,67.98
2022-10-29T22:53:39.045Z,67.87
2022-10-29T22:56:06.107Z,68.02
2022-10-29T22:58:32.936Z,68.26
2022-10-29T23:01:06.943Z,68.66
2022-10-29T23:03:34.426Z,68.75
2022-10-29T23:06:02.278Z,68.51
2022-10-29T23:08:29.217Z,68.62
2022-10-29T23:10:56.016Z,68.75
2022-10-29T23:13:22.954Z,68.92
2022-10-29T23:15:50.501Z,68.79
2022-10-29T23:18:17.949Z,68.89
2022-10-29T23:20:44.993Z,69.05
2022-10-29T23:23:12.509Z,69.43
2022-10-29T23:25:42.381Z,69.47
2022-10-29T23:28:09.545Z,69.36
2022-10-29T23:30:36.438Z,69.80
2022-10-29T23:33:03.232Z,69.41
2022-10-29T23:35:29.969Z,70.14
2022-10-29T23:37:57.133Z,70.47
2022-10-29T23:40:24.037Z,70.33
2022-10-29T23:42:50.910Z,69.93
2022-10-29T23:45:17.668Z,70.42
2022-10-29T23:47:44.501Z,70.79
2022-10-29T23:50:11.201Z,70.47
2022-10-29T23:52:38.198Z,70.40
2022-10-29T23:55:05.257Z,70.78
2022-10-29T23:57:31.917Z,70.84
2022-10-29T23:59:58.827Z,70.63
